sensor_id;sensor_type;location;lat;lon;timestamp;P1;durP1;ratioP1;P2;durP2;ratioP2
83893;SDS011;73920;51.902;6.374;2024-02-26T06:13:11;4.15;;;3.00;;
83893;SDS011;73920;51.902;6.374;2024-02-26T06:15:38;4.93;;;3.12;;
83893;SDS011;73920;51.902;6.374;2024-02-26T06:20:32;4.10;;;2.58;;
83893;SDS011;73920;51.902;6.374;2024-02-26T06:22:59;4.30;;;2.78;;
83893;SDS011;73920;51.902;6.374;2024-02-26T06:30:37;4.90;;;3.00;;
83893;SDS011;73920;51.902;6.374;2024-02-26T06:33:03;7.18;;;2.50;;
83893;SDS011;73920;51.902;6.374;2024-02-26T06:35:30;4.40;;;2.30;;
83893;SDS011;73920;51.902;6.374;2024-02-26T06:37:57;2.72;;;1.98;;
83893;SDS011;73920;51.902;6.374;2024-02-26T06:40:23;4.50;;;2.40;;
83893;SDS011;73920;51.902;6.374;2024-02-26T06:42:49;3.10;;;2.33;;
83893;SDS011;73920;51.902;6.374;2024-02-26T06:45:16;3.80;;;2.20;;
83893;SDS011;73920;51.902;6.374;2024-02-26T06:47:42;4.00;;;2.65;;
83893;SDS011;73920;51.902;6.374;2024-02-26T06:50:09;4.03;;;2.22;;
83893;SDS011;73920;51.902;6.374;2024-02-26T06:52:37;4.87;;;2.42;;
83893;SDS011;73920;51.902;6.374;2024-02-26T06:55:03;5.47;;;2.58;;
83893;SDS011;73920;51.902;6.374;2024-02-26T06:57:30;3.87;;;2.70;;
83893;SDS011;73920;51.902;6.374;2024-02-26T06:59:57;4.75;;;2.67;;
83893;SDS011;73920;51.902;6.374;2024-02-26T07:02:23;5.35;;;3.15;;
83893;SDS011;73920;51.902;6.374;2024-02-26T07:04:49;2.83;;;2.10;;
83893;SDS011;73920;51.902;6.374;2024-02-26T07:07:15;3.28;;;2.12;;
83893;SDS011;73920;51.902;6.374;2024-02-26T07:09:42;4.53;;;2.55;;
83893;SDS011;73920;51.902;6.374;2024-02-26T07:12:08;2.70;;;2.10;;
83893;SDS011;73920;51.902;6.374;2024-02-26T07:14:34;6.60;;;2.55;;
83893;SDS011;73920;51.902;6.374;2024-02-26T07:17:00;2.95;;;2.40;;
83893;SDS011;73920;51.902;6.374;2024-02-26T07:19:27;2.78;;;2.20;;
83893;SDS011;73920;51.902;6.374;2024-02-26T07:21:53;3.20;;;2.00;;
83893;SDS011;73920;51.902;6.374;2024-02-26T07:24:19;3.83;;;2.12;;
83893;SDS011;73920;51.902;6.374;2024-02-26T07:26:45;3.28;;;2.30;;
83893;SDS011;73920;51.902;6.374;2024-02-26T07:29:12;3.03;;;2.40;;
83893;SDS011;73920;51.902;6.374;2024-02-26T07:31:38;4.07;;;2.42;;
83893;SDS011;73920;51.902;6.374;2024-02-26T07:34:04;3.72;;;2.80;;
83893;SDS011;73920;51.902;6.374;2024-02-26T07:36:30;3.53;;;2.37;;
83893;SDS011;73920;51.902;6.374;2024-02-26T07:38:57;3.40;;;2.33;;
83893;SDS011;73920;51.902;6.374;2024-02-26T07:41:23;3.90;;;2.47;;
83893;SDS011;73920;51.902;6.374;2024-02-26T07:43:49;4.47;;;2.40;;
83893;SDS011;73920;51.902;6.374;2024-02-26T07:46:15;4.03;;;2.47;;
83893;SDS011;73920;51.902;6.374;2024-02-26T07:48:41;4.57;;;3.00;;
83893;SDS011;73920;51.902;6.374;2024-02-26T07:51:11;5.47;;;2.53;;
83893;SDS011;73920;51.902;6.374;2024-02-26T07:53:38;2.90;;;2.00;;
83893;SDS011;73920;51.902;6.374;2024-02-26T07:56:05;4.10;;;2.37;;
83893;SDS011;73920;51.902;6.374;2024-02-26T07:58:32;5.68;;;2.67;;
83893;SDS011;73920;51.902;6.374;2024-02-26T08:00:58;2.65;;;1.92;;
83893;SDS011;73920;51.902;6.374;2024-02-26T08:03:24;6.37;;;2.00;;
83893;SDS011;73920;51.902;6.374;2024-02-26T08:05:51;3.15;;;2.30;;
83893;SDS011;73920;51.902;6.374;2024-02-26T08:08:17;3.40;;;2.20;;
83893;SDS011;73920;51.902;6.374;2024-02-26T08:10:43;4.05;;;2.25;;
83893;SDS011;73920;51.902;6.374;2024-02-26T08:13:10;4.53;;;2.08;;
83893;SDS011;73920;51.902;6.374;2024-02-26T08:15:36;2.65;;;1.90;;
83893;SDS011;73920;51.902;6.374;2024-02-26T08:18:03;5.60;;;2.10;;
83893;SDS011;73920;51.902;6.374;2024-02-26T08:20:30;4.07;;;2.17;;
83893;SDS011;73920;51.902;6.374;2024-02-26T08:22:57;5.22;;;2.50;;
83893;SDS011;73920;51.902;6.374;2024-02-26T08:25:24;3.33;;;2.05;;
83893;SDS011;73920;51.902;6.374;2024-02-26T08:27:50;3.92;;;2.20;;
83893;SDS011;73920;51.902;6.374;2024-02-26T08:30:16;3.05;;;2.03;;
83893;SDS011;73920;51.902;6.374;2024-02-26T08:32:43;5.80;;;2.28;;
83893;SDS011;73920;51.902;6.374;2024-02-26T08:35:10;2.85;;;1.90;;
83893;SDS011;73920;51.902;6.374;2024-02-26T08:37:37;2.83;;;1.90;;
83893;SDS011;73920;51.902;6.374;2024-02-26T08:40:03;5.65;;;2.60;;
83893;SDS011;73920;51.902;6.374;2024-02-26T08:42:31;3.47;;;2.03;;
83893;SDS011;73920;51.902;6.374;2024-02-26T08:44:57;5.90;;;2.83;;
83893;SDS011;73920;51.902;6.374;2024-02-26T08:47:23;4.60;;;2.78;;
83893;SDS011;73920;51.902;6.374;2024-02-26T08:49:49;3.95;;;2.50;;
83893;SDS011;73920;51.902;6.374;2024-02-26T08:52:16;7.37;;;3.10;;
83893;SDS011;73920;51.902;6.374;2024-02-26T08:54:42;6.85;;;2.50;;
83893;SDS011;73920;51.902;6.374;2024-02-26T08:57:08;3.37;;;2.55;;
83893;SDS011;73920;51.902;6.374;2024-02-26T08:59:34;3.97;;;2.62;;
83893;SDS011;73920;51.902;6.374;2024-02-26T09:02:00;4.47;;;3.30;;
83893;SDS011;73920;51.902;6.374;2024-02-26T09:04:27;3.95;;;2.75;;
83893;SDS011;73920;51.902;6.374;2024-02-26T09:06:53;3.72;;;2.90;;
83893;SDS011;73920;51.902;6.374;2024-02-26T09:09:20;5.43;;;2.65;;
83893;SDS011;73920;51.902;6.374;2024-02-26T09:11:46;4.90;;;3.10;;
83893;SDS011;73920;51.902;6.374;2024-02-26T09:14:12;5.22;;;3.33;;
83893;SDS011;73920;51.902;6.374;2024-02-26T09:16:38;4.68;;;3.25;;
83893;SDS011;73920;51.902;6.374;2024-02-26T09:19:04;4.15;;;2.90;;
83893;SDS011;73920;51.902;6.374;2024-02-26T09:21:31;5.03;;;2.97;;
83893;SDS011;73920;51.902;6.374;2024-02-26T09:23:57;6.43;;;3.42;;
83893;SDS011;73920;51.902;6.374;2024-02-26T09:26:23;7.53;;;3.50;;
83893;SDS011;73920;51.902;6.374;2024-02-26T09:28:49;6.62;;;3.40;;
83893;SDS011;73920;51.902;6.374;2024-02-26T09:31:17;5.85;;;3.10;;
83893;SDS011;73920;51.902;6.374;2024-02-26T09:33:43;7.62;;;4.20;;
83893;SDS011;73920;51.902;6.374;2024-02-26T09:36:10;7.95;;;3.70;;
83893;SDS011;73920;51.902;6.374;2024-02-26T09:38:36;5.60;;;3.37;;
83893;SDS011;73920;51.902;6.374;2024-02-26T09:41:03;5.72;;;3.22;;
83893;SDS011;73920;51.902;6.374;2024-02-26T09:46:01;4.12;;;2.70;;
83893;SDS011;73920;51.902;6.374;2024-02-26T09:48:28;5.22;;;3.40;;
83893;SDS011;73920;51.902;6.374;2024-02-26T09:50:55;6.62;;;4.00;;
83893;SDS011;73920;51.902;6.374;2024-02-26T09:53:22;6.15;;;3.40;;
83893;SDS011;73920;51.902;6.374;2024-02-26T09:55:48;8.02;;;3.70;;
83893;SDS011;73920;51.902;6.374;2024-02-26T09:58:14;6.10;;;3.85;;
83893;SDS011;73920;51.902;6.374;2024-02-26T10:00:42;7.78;;;4.28;;
83893;SDS011;73920;51.902;6.374;2024-02-26T10:03:13;6.22;;;3.47;;
83893;SDS011;73920;51.902;6.374;2024-02-26T10:05:40;8.18;;;3.70;;
83893;SDS011;73920;51.902;6.374;2024-02-26T10:08:08;7.15;;;3.55;;
83893;SDS011;73920;51.902;6.374;2024-02-26T10:10:36;6.55;;;3.53;;
83893;SDS011;73920;51.902;6.374;2024-02-26T10:13:04;5.45;;;3.22;;
83893;SDS011;73920;51.902;6.374;2024-02-26T10:15:31;6.32;;;3.58;;
83893;SDS011;73920;51.902;6.374;2024-02-26T10:17:57;7.62;;;4.00;;
83893;SDS011;73920;51.902;6.374;2024-02-26T10:20:23;5.95;;;3.97;;
83893;SDS011;73920;51.902;6.374;2024-02-26T10:22:50;8.95;;;4.32;;
83893;SDS011;73920;51.902;6.374;2024-02-26T10:25:16;7.10;;;3.92;;
83893;SDS011;73920;51.902;6.374;2024-02-26T10:27:43;7.00;;;4.57;;
83893;SDS011;73920;51.902;6.374;2024-02-26T10:32:45;6.00;;;3.95;;
83893;SDS011;73920;51.902;6.374;2024-02-26T10:35:15;6.97;;;3.92;;
83893;SDS011;73920;51.902;6.374;2024-02-26T10:37:43;7.00;;;4.18;;
83893;SDS011;73920;51.902;6.374;2024-02-26T10:40:10;10.05;;;4.10;;
83893;SDS011;73920;51.902;6.374;2024-02-26T10:42:37;8.07;;;3.83;;
83893;SDS011;73920;51.902;6.374;2024-02-26T10:45:05;9.20;;;4.60;;
83893;SDS011;73920;51.902;6.374;2024-02-26T10:47:32;7.53;;;4.05;;
83893;SDS011;73920;51.902;6.374;2024-02-26T10:49:59;7.32;;;3.97;;
83893;SDS011;73920;51.902;6.374;2024-02-26T10:52:27;8.35;;;4.20;;
83893;SDS011;73920;51.902;6.374;2024-02-26T10:54:56;10.52;;;4.90;;
83893;SDS011;73920;51.902;6.374;2024-02-26T10:57:25;8.82;;;4.43;;
83893;SDS011;73920;51.902;6.374;2024-02-26T10:59:54;9.27;;;4.20;;
83893;SDS011;73920;51.902;6.374;2024-02-26T11:02:21;6.75;;;4.20;;
83893;SDS011;73920;51.902;6.374;2024-02-26T11:04:48;8.85;;;4.15;;
83893;SDS011;73920;51.902;6.374;2024-02-26T11:07:14;10.35;;;4.72;;
83893;SDS011;73920;51.902;6.374;2024-02-26T11:09:41;9.13;;;5.43;;
83893;SDS011;73920;51.902;6.374;2024-02-26T11:12:12;10.60;;;5.12;;
83893;SDS011;73920;51.902;6.374;2024-02-26T11:14:40;13.82;;;5.15;;
83893;SDS011;73920;51.902;6.374;2024-02-26T11:17:08;14.07;;;4.90;;
83893;SDS011;73920;51.902;6.374;2024-02-26T11:19:36;11.00;;;5.25;;
83893;SDS011;73920;51.902;6.374;2024-02-26T11:22:06;11.32;;;5.78;;
83893;SDS011;73920;51.902;6.374;2024-02-26T11:24:33;12.93;;;5.80;;
83893;SDS011;73920;51.902;6.374;2024-02-26T11:27:00;12.95;;;5.47;;
83893;SDS011;73920;51.902;6.374;2024-02-26T11:29:34;12.63;;;6.40;;
83893;SDS011;73920;51.902;6.374;2024-02-26T11:32:07;10.63;;;5.18;;
83893;SDS011;73920;51.902;6.374;2024-02-26T11:34:33;13.18;;;6.47;;
83893;SDS011;73920;51.902;6.374;2024-02-26T11:39:39;14.65;;;6.80;;
83893;SDS011;73920;51.902;6.374;2024-02-26T11:42:06;13.57;;;6.78;;
83893;SDS011;73920;51.902;6.374;2024-02-26T11:44:34;15.23;;;6.68;;
83893;SDS011;73920;51.902;6.374;2024-02-26T11:47:09;14.77;;;6.62;;
83893;SDS011;73920;51.902;6.374;2024-02-26T11:49:39;15.90;;;7.03;;
83893;SDS011;73920;51.902;6.374;2024-02-26T11:52:09;16.02;;;6.22;;
83893;SDS011;73920;51.902;6.374;2024-02-26T11:59:47;14.63;;;6.60;;
83893;SDS011;73920;51.902;6.374;2024-02-26T12:04:50;19.90;;;8.18;;
83893;SDS011;73920;51.902;6.374;2024-02-26T12:07:17;16.00;;;7.55;;
83893;SDS011;73920;51.902;6.374;2024-02-26T12:09:43;17.92;;;8.27;;
83893;SDS011;73920;51.902;6.374;2024-02-26T12:12:10;20.20;;;8.80;;
83893;SDS011;73920;51.902;6.374;2024-02-26T12:17:21;16.25;;;6.72;;
83893;SDS011;73920;51.902;6.374;2024-02-26T12:19:49;16.17;;;6.22;;
83893;SDS011;73920;51.902;6.374;2024-02-26T12:22:16;17.17;;;6.53;;
83893;SDS011;73920;51.902;6.374;2024-02-26T12:24:43;14.20;;;6.50;;
83893;SDS011;73920;51.902;6.374;2024-02-26T12:27:09;14.98;;;6.30;;
83893;SDS011;73920;51.902;6.374;2024-02-26T12:29:35;13.27;;;5.97;;
83893;SDS011;73920;51.902;6.374;2024-02-26T12:32:05;14.10;;;6.10;;
83893;SDS011;73920;51.902;6.374;2024-02-26T12:34:31;17.83;;;6.22;;
83893;SDS011;73920;51.902;6.374;2024-02-26T12:36:58;11.93;;;6.22;;
83893;SDS011;73920;51.902;6.374;2024-02-26T12:39:24;12.60;;;5.47;;
83893;SDS011;73920;51.902;6.374;2024-02-26T12:41:51;12.05;;;5.03;;
83893;SDS011;73920;51.902;6.374;2024-02-26T12:44:18;12.00;;;5.85;;
83893;SDS011;73920;51.902;6.374;2024-02-26T12:49:25;10.95;;;4.90;;
83893;SDS011;73920;51.902;6.374;2024-02-26T12:51:51;12.55;;;5.55;;
83893;SDS011;73920;51.902;6.374;2024-02-26T12:54:18;12.68;;;4.93;;
83893;SDS011;73920;51.902;6.374;2024-02-26T12:56:44;9.57;;;4.87;;
83893;SDS011;73920;51.902;6.374;2024-02-26T12:59:11;9.07;;;4.20;;
83893;SDS011;73920;51.902;6.374;2024-02-26T13:01:38;9.15;;;4.07;;
83893;SDS011;73920;51.902;6.374;2024-02-26T13:04:04;11.20;;;4.87;;
83893;SDS011;73920;51.902;6.374;2024-02-26T13:06:31;11.55;;;5.45;;
83893;SDS011;73920;51.902;6.374;2024-02-26T13:08:58;9.68;;;4.12;;
83893;SDS011;73920;51.902;6.374;2024-02-26T13:11:25;11.52;;;5.20;;
83893;SDS011;73920;51.902;6.374;2024-02-26T13:13:51;12.50;;;4.32;;
83893;SDS011;73920;51.902;6.374;2024-02-26T13:16:18;6.70;;;4.03;;
83893;SDS011;73920;51.902;6.374;2024-02-26T13:18:44;11.63;;;4.32;;
83893;SDS011;73920;51.902;6.374;2024-02-26T13:21:12;8.02;;;4.03;;
83893;SDS011;73920;51.902;6.374;2024-02-26T13:23:39;8.48;;;4.05;;
83893;SDS011;73920;51.902;6.374;2024-02-26T13:26:07;8.45;;;3.80;;
83893;SDS011;73920;51.902;6.374;2024-02-26T13:28:34;9.05;;;4.72;;
83893;SDS011;73920;51.902;6.374;2024-02-26T13:31:00;8.32;;;4.10;;
83893;SDS011;73920;51.902;6.374;2024-02-26T13:33:27;9.60;;;4.97;;
83893;SDS011;73920;51.902;6.374;2024-02-26T13:35:55;12.23;;;5.35;;
83893;SDS011;73920;51.902;6.374;2024-02-26T13:38:22;9.10;;;4.60;;
83893;SDS011;73920;51.902;6.374;2024-02-26T13:40:51;11.60;;;4.70;;
83893;SDS011;73920;51.902;6.374;2024-02-26T13:43:20;7.95;;;4.25;;
83893;SDS011;73920;51.902;6.374;2024-02-26T13:45:47;10.48;;;4.25;;
83893;SDS011;73920;51.902;6.374;2024-02-26T13:48:13;9.98;;;4.47;;
83893;SDS011;73920;51.902;6.374;2024-02-26T13:50:43;7.32;;;3.60;;
83893;SDS011;73920;51.902;6.374;2024-02-26T13:53:09;8.10;;;4.20;;
83893;SDS011;73920;51.902;6.374;2024-02-26T13:55:36;8.77;;;4.07;;
83893;SDS011;73920;51.902;6.374;2024-02-26T13:58:02;9.55;;;4.90;;
83893;SDS011;73920;51.902;6.374;2024-02-26T14:00:29;8.65;;;4.40;;
83893;SDS011;73920;51.902;6.374;2024-02-26T14:02:56;8.65;;;4.50;;
83893;SDS011;73920;51.902;6.374;2024-02-26T14:05:23;7.57;;;4.25;;
83893;SDS011;73920;51.902;6.374;2024-02-26T14:07:49;8.20;;;4.03;;
83893;SDS011;73920;51.902;6.374;2024-02-26T14:10:15;8.18;;;3.92;;
83893;SDS011;73920;51.902;6.374;2024-02-26T14:12:41;7.50;;;3.47;;
83893;SDS011;73920;51.902;6.374;2024-02-26T14:15:08;9.43;;;4.65;;
83893;SDS011;73920;51.902;6.374;2024-02-26T14:17:36;7.32;;;4.25;;
83893;SDS011;73920;51.902;6.374;2024-02-26T14:20:02;9.23;;;4.22;;
83893;SDS011;73920;51.902;6.374;2024-02-26T14:22:29;8.73;;;4.18;;
83893;SDS011;73920;51.902;6.374;2024-02-26T14:24:56;9.68;;;4.30;;
83893;SDS011;73920;51.902;6.374;2024-02-26T14:27:22;8.18;;;3.80;;
83893;SDS011;73920;51.902;6.374;2024-02-26T14:29:49;7.57;;;4.30;;
83893;SDS011;73920;51.902;6.374;2024-02-26T14:32:15;8.57;;;4.22;;
83893;SDS011;73920;51.902;6.374;2024-02-26T14:34:41;10.10;;;4.82;;
83893;SDS011;73920;51.902;6.374;2024-02-26T14:37:08;7.75;;;4.22;;
83893;SDS011;73920;51.902;6.374;2024-02-26T14:39:34;8.43;;;4.28;;
83893;SDS011;73920;51.902;6.374;2024-02-26T14:42:00;7.93;;;3.97;;
83893;SDS011;73920;51.902;6.374;2024-02-26T14:44:27;8.73;;;4.43;;
83893;SDS011;73920;51.902;6.374;2024-02-26T14:46:53;8.38;;;3.95;;
83893;SDS011;73920;51.902;6.374;2024-02-26T14:49:19;7.03;;;3.85;;
83893;SDS011;73920;51.902;6.374;2024-02-26T14:51:45;9.90;;;4.07;;
83893;SDS011;73920;51.902;6.374;2024-02-26T14:54:12;9.02;;;4.10;;
83893;SDS011;73920;51.902;6.374;2024-02-26T14:56:39;7.85;;;4.50;;
83893;SDS011;73920;51.902;6.374;2024-02-26T14:59:06;6.35;;;3.80;;
83893;SDS011;73920;51.902;6.374;2024-02-26T15:01:32;7.28;;;4.10;;
83893;SDS011;73920;51.902;6.374;2024-02-26T15:03:59;8.70;;;3.70;;
83893;SDS011;73920;51.902;6.374;2024-02-26T15:06:25;9.00;;;3.97;;
83893;SDS011;73920;51.902;6.374;2024-02-26T15:08:52;8.48;;;4.18;;
83893;SDS011;73920;51.902;6.374;2024-02-26T15:11:19;8.23;;;3.62;;
83893;SDS011;73920;51.902;6.374;2024-02-26T15:13:45;8.68;;;4.35;;
83893;SDS011;73920;51.902;6.374;2024-02-26T15:18:44;7.55;;;3.85;;
83893;SDS011;73920;51.902;6.374;2024-02-26T15:21:11;7.95;;;3.78;;
83893;SDS011;73920;51.902;6.374;2024-02-26T15:23:37;8.25;;;4.45;;
83893;SDS011;73920;51.902;6.374;2024-02-26T15:26:04;7.22;;;3.95;;
83893;SDS011;73920;51.902;6.374;2024-02-26T15:28:30;7.93;;;4.03;;
83893;SDS011;73920;51.902;6.374;2024-02-26T15:30:56;7.90;;;3.85;;
83893;SDS011;73920;51.902;6.374;2024-02-26T15:33:23;7.22;;;3.62;;
83893;SDS011;73920;51.902;6.374;2024-02-26T15:35:50;7.15;;;3.87;;
83893;SDS011;73920;51.902;6.374;2024-02-26T15:38:16;8.25;;;3.97;;
83893;SDS011;73920;51.902;6.374;2024-02-26T15:40:42;5.72;;;3.47;;
83893;SDS011;73920;51.902;6.374;2024-02-26T15:43:09;7.85;;;3.30;;
83893;SDS011;73920;51.902;6.374;2024-02-26T15:45:35;6.47;;;3.47;;
83893;SDS011;73920;51.902;6.374;2024-02-26T15:48:01;8.05;;;4.20;;
83893;SDS011;73920;51.902;6.374;2024-02-26T15:50:28;7.57;;;4.07;;
83893;SDS011;73920;51.902;6.374;2024-02-26T15:52:54;7.00;;;3.90;;
83893;SDS011;73920;51.902;6.374;2024-02-26T15:55:20;6.85;;;3.60;;
83893;SDS011;73920;51.902;6.374;2024-02-26T15:57:46;5.65;;;3.00;;
83893;SDS011;73920;51.902;6.374;2024-02-26T16:00:13;7.05;;;3.35;;
83893;SDS011;73920;51.902;6.374;2024-02-26T16:02:40;7.65;;;4.00;;
83893;SDS011;73920;51.902;6.374;2024-02-26T16:05:08;8.50;;;3.47;;
83893;SDS011;73920;51.902;6.374;2024-02-26T16:07:39;8.32;;;3.22;;
83893;SDS011;73920;51.902;6.374;2024-02-26T16:10:21;9.30;;;4.10;;
83893;SDS011;73920;51.902;6.374;2024-02-26T16:12:52;9.85;;;4.15;;
83893;SDS011;73920;51.902;6.374;2024-02-26T16:15:20;6.40;;;3.45;;
83893;SDS011;73920;51.902;6.374;2024-02-26T16:17:48;7.30;;;4.20;;
83893;SDS011;73920;51.902;6.374;2024-02-26T16:22:57;8.20;;;3.40;;
83893;SDS011;73920;51.902;6.374;2024-02-26T16:25:23;8.38;;;4.15;;
83893;SDS011;73920;51.902;6.374;2024-02-26T16:28:01;6.65;;;3.67;;
83893;SDS011;73920;51.902;6.374;2024-02-26T16:33:04;8.23;;;3.97;;
83893;SDS011;73920;51.902;6.374;2024-02-26T16:35:31;6.70;;;3.70;;
83893;SDS011;73920;51.902;6.374;2024-02-26T16:37:57;7.72;;;3.95;;
83893;SDS011;73920;51.902;6.374;2024-02-26T16:40:24;8.73;;;4.00;;
83893;SDS011;73920;51.902;6.374;2024-02-26T16:42:50;8.63;;;3.72;;
83893;SDS011;73920;51.902;6.374;2024-02-26T16:45:19;7.85;;;4.03;;
83893;SDS011;73920;51.902;6.374;2024-02-26T16:47:46;8.32;;;4.43;;
83893;SDS011;73920;51.902;6.374;2024-02-26T16:50:12;7.32;;;3.28;;
83893;SDS011;73920;51.902;6.374;2024-02-26T16:52:38;9.52;;;4.57;;
83893;SDS011;73920;51.902;6.374;2024-02-26T16:55:06;7.22;;;3.58;;
83893;SDS011;73920;51.902;6.374;2024-02-26T16:57:33;9.40;;;4.10;;
83893;SDS011;73920;51.902;6.374;2024-02-26T16:59:59;8.48;;;4.05;;
83893;SDS011;73920;51.902;6.374;2024-02-26T17:02:26;7.57;;;3.75;;
83893;SDS011;73920;51.902;6.374;2024-02-26T17:04:53;8.40;;;4.00;;
83893;SDS011;73920;51.902;6.374;2024-02-26T17:07:19;8.75;;;4.00;;
83893;SDS011;73920;51.902;6.374;2024-02-26T17:09:45;6.70;;;3.80;;
83893;SDS011;73920;51.902;6.374;2024-02-26T17:12:11;10.05;;;4.75;;
83893;SDS011;73920;51.902;6.374;2024-02-26T17:14:37;8.32;;;3.85;;
83893;SDS011;73920;51.902;6.374;2024-02-26T17:17:04;8.77;;;4.22;;
83893;SDS011;73920;51.902;6.374;2024-02-26T17:19:30;7.47;;;4.20;;
83893;SDS011;73920;51.902;6.374;2024-02-26T17:21:56;11.23;;;4.45;;
83893;SDS011;73920;51.902;6.374;2024-02-26T17:24:22;5.72;;;3.12;;
83893;SDS011;73920;51.902;6.374;2024-02-26T17:26:49;8.57;;;4.55;;
83893;SDS011;73920;51.902;6.374;2024-02-26T17:29:15;7.87;;;4.10;;
83893;SDS011;73920;51.902;6.374;2024-02-26T17:31:41;9.23;;;4.57;;
83893;SDS011;73920;51.902;6.374;2024-02-26T17:34:08;10.40;;;4.60;;
83893;SDS011;73920;51.902;6.374;2024-02-26T17:39:01;8.88;;;4.45;;
83893;SDS011;73920;51.902;6.374;2024-02-26T17:41:28;9.35;;;5.12;;
83893;SDS011;73920;51.902;6.374;2024-02-26T17:43:54;8.93;;;4.85;;
83893;SDS011;73920;51.902;6.374;2024-02-26T17:46:20;10.52;;;5.35;;
83893;SDS011;73920;51.902;6.374;2024-02-26T17:48:47;8.13;;;5.43;;
83893;SDS011;73920;51.902;6.374;2024-02-26T17:51:13;10.13;;;5.05;;
83893;SDS011;73920;51.902;6.374;2024-02-26T17:53:39;9.93;;;5.40;;
83893;SDS011;73920;51.902;6.374;2024-02-26T17:56:06;10.95;;;5.30;;
83893;SDS011;73920;51.902;6.374;2024-02-26T17:58:33;9.63;;;5.53;;
83893;SDS011;73920;51.902;6.374;2024-02-26T18:01:06;9.00;;;5.25;;
83893;SDS011;73920;51.902;6.374;2024-02-26T18:03:33;9.63;;;5.53;;
83893;SDS011;73920;51.902;6.374;2024-02-26T18:06:00;10.90;;;4.93;;
83893;SDS011;73920;51.902;6.374;2024-02-26T18:08:27;11.90;;;5.75;;
83893;SDS011;73920;51.902;6.374;2024-02-26T18:10:53;11.30;;;5.55;;
83893;SDS011;73920;51.902;6.374;2024-02-26T18:13:19;11.02;;;6.05;;
83893;SDS011;73920;51.902;6.374;2024-02-26T18:15:46;10.63;;;4.97;;
83893;SDS011;73920;51.902;6.374;2024-02-26T18:18:12;13.23;;;5.55;;
83893;SDS011;73920;51.902;6.374;2024-02-26T18:20:38;10.90;;;5.37;;
83893;SDS011;73920;51.902;6.374;2024-02-26T18:23:05;12.90;;;5.45;;
83893;SDS011;73920;51.902;6.374;2024-02-26T18:25:31;11.38;;;5.85;;
83893;SDS011;73920;51.902;6.374;2024-02-26T18:27:57;11.00;;;5.60;;
83893;SDS011;73920;51.902;6.374;2024-02-26T18:30:25;14.00;;;6.32;;
83893;SDS011;73920;51.902;6.374;2024-02-26T18:32:51;10.85;;;5.28;;
83893;SDS011;73920;51.902;6.374;2024-02-26T18:35:17;13.48;;;6.85;;
83893;SDS011;73920;51.902;6.374;2024-02-26T18:37:43;11.10;;;5.45;;
83893;SDS011;73920;51.902;6.374;2024-02-26T18:40:10;11.00;;;6.05;;
83893;SDS011;73920;51.902;6.374;2024-02-26T18:42:37;14.90;;;6.15;;
83893;SDS011;73920;51.902;6.374;2024-02-26T18:45:03;14.30;;;5.82;;
83893;SDS011;73920;51.902;6.374;2024-02-26T18:49:57;13.40;;;5.72;;
83893;SDS011;73920;51.902;6.374;2024-02-26T18:52:23;11.50;;;5.68;;
83893;SDS011;73920;51.902;6.374;2024-02-26T18:54:49;13.62;;;6.90;;
83893;SDS011;73920;51.902;6.374;2024-02-26T18:57:15;14.98;;;6.68;;
83893;SDS011;73920;51.902;6.374;2024-02-26T18:59:42;11.50;;;5.43;;
83893;SDS011;73920;51.902;6.374;2024-02-26T19:02:08;14.30;;;6.75;;
83893;SDS011;73920;51.902;6.374;2024-02-26T19:07:11;12.77;;;6.25;;
83893;SDS011;73920;51.902;6.374;2024-02-26T19:09:38;11.77;;;6.07;;
83893;SDS011;73920;51.902;6.374;2024-02-26T19:12:04;12.98;;;6.15;;
83893;SDS011;73920;51.902;6.374;2024-02-26T19:14:31;13.15;;;6.90;;
83893;SDS011;73920;51.902;6.374;2024-02-26T19:16:57;14.60;;;6.40;;
83893;SDS011;73920;51.902;6.374;2024-02-26T19:19:23;13.68;;;6.15;;
83893;SDS011;73920;51.902;6.374;2024-02-26T19:21:50;13.68;;;6.25;;
83893;SDS011;73920;51.902;6.374;2024-02-26T19:24:16;13.50;;;6.70;;
83893;SDS011;73920;51.902;6.374;2024-02-26T19:26:42;14.57;;;6.40;;
83893;SDS011;73920;51.902;6.374;2024-02-26T19:29:08;14.77;;;6.82;;
83893;SDS011;73920;51.902;6.374;2024-02-26T19:31:35;14.45;;;6.07;;
83893;SDS011;73920;51.902;6.374;2024-02-26T19:34:02;15.68;;;6.07;;
83893;SDS011;73920;51.902;6.374;2024-02-26T19:54:33;14.23;;;7.57;;
83893;SDS011;73920;51.902;6.374;2024-02-26T19:57:05;15.98;;;6.37;;
83893;SDS011;73920;51.902;6.374;2024-02-26T20:04:46;14.45;;;6.55;;
83893;SDS011;73920;51.902;6.374;2024-02-26T20:09:49;14.07;;;6.47;;
83893;SDS011;73920;51.902;6.374;2024-02-26T20:12:15;14.27;;;6.12;;
83893;SDS011;73920;51.902;6.374;2024-02-26T20:17:17;12.13;;;5.97;;
83893;SDS011;73920;51.902;6.374;2024-02-26T20:19:44;11.85;;;6.68;;
83893;SDS011;73920;51.902;6.374;2024-02-26T20:24:55;15.68;;;6.70;;
83893;SDS011;73920;51.902;6.374;2024-02-26T20:27:21;13.95;;;6.62;;
83893;SDS011;73920;51.902;6.374;2024-02-26T20:29:48;15.52;;;7.30;;
83893;SDS011;73920;51.902;6.374;2024-02-26T20:32:14;14.80;;;6.32;;
83893;SDS011;73920;51.902;6.374;2024-02-26T20:37:16;14.63;;;6.70;;
83893;SDS011;73920;51.902;6.374;2024-02-26T20:39:43;17.00;;;6.57;;
83893;SDS011;73920;51.902;6.374;2024-02-26T20:42:09;14.02;;;5.68;;
83893;SDS011;73920;51.902;6.374;2024-02-26T20:44:36;14.05;;;6.30;;
83893;SDS011;73920;51.902;6.374;2024-02-26T20:49:43;14.90;;;6.43;;
83893;SDS011;73920;51.902;6.374;2024-02-26T20:52:10;13.75;;;6.37;;
83893;SDS011;73920;51.902;6.374;2024-02-26T20:54:37;13.38;;;6.50;;
83893;SDS011;73920;51.902;6.374;2024-02-26T20:57:04;16.50;;;6.85;;
83893;SDS011;73920;51.902;6.374;2024-02-26T20:59:30;12.95;;;6.35;;
83893;SDS011;73920;51.902;6.374;2024-02-26T21:01:56;16.42;;;7.30;;
83893;SDS011;73920;51.902;6.374;2024-02-26T21:04:23;16.70;;;7.32;;
83893;SDS011;73920;51.902;6.374;2024-02-26T21:09:20;14.85;;;7.00;;
83893;SDS011;73920;51.902;6.374;2024-02-26T21:11:46;16.42;;;7.15;;
83893;SDS011;73920;51.902;6.374;2024-02-26T21:14:12;18.37;;;7.62;;
83893;SDS011;73920;51.902;6.374;2024-02-26T21:16:39;16.73;;;7.68;;
83893;SDS011;73920;51.902;6.374;2024-02-26T21:19:05;18.20;;;7.32;;
83893;SDS011;73920;51.902;6.374;2024-02-26T21:21:31;15.13;;;6.75;;
83893;SDS011;73920;51.902;6.374;2024-02-26T21:23:57;16.98;;;7.40;;
83893;SDS011;73920;51.902;6.374;2024-02-26T21:26:24;19.80;;;7.57;;
83893;SDS011;73920;51.902;6.374;2024-02-26T21:28:50;20.10;;;8.57;;
83893;SDS011;73920;51.902;6.374;2024-02-26T21:31:16;18.37;;;7.72;;
83893;SDS011;73920;51.902;6.374;2024-02-26T21:33:42;16.50;;;6.62;;
83893;SDS011;73920;51.902;6.374;2024-02-26T21:36:09;14.45;;;6.40;;
83893;SDS011;73920;51.902;6.374;2024-02-26T21:38:35;16.45;;;6.70;;
83893;SDS011;73920;51.902;6.374;2024-02-26T21:41:01;19.83;;;6.70;;
83893;SDS011;73920;51.902;6.374;2024-02-26T21:43:28;16.98;;;7.35;;
83893;SDS011;73920;51.902;6.374;2024-02-26T21:45:54;14.15;;;6.32;;
83893;SDS011;73920;51.902;6.374;2024-02-26T21:48:20;17.62;;;7.37;;
83893;SDS011;73920;51.902;6.374;2024-02-26T21:50:46;17.30;;;7.37;;
83893;SDS011;73920;51.902;6.374;2024-02-26T21:53:12;14.70;;;6.65;;
83893;SDS011;73920;51.902;6.374;2024-02-26T21:55:39;15.20;;;6.80;;
83893;SDS011;73920;51.902;6.374;2024-02-26T21:58:05;13.50;;;7.00;;
83893;SDS011;73920;51.902;6.374;2024-02-26T22:00:31;18.27;;;8.15;;
83893;SDS011;73920;51.902;6.374;2024-02-26T22:02:57;17.58;;;7.85;;
83893;SDS011;73920;51.902;6.374;2024-02-26T22:05:23;15.90;;;6.12;;
83893;SDS011;73920;51.902;6.374;2024-02-26T22:07:50;20.48;;;7.37;;
83893;SDS011;73920;51.902;6.374;2024-02-26T22:10:16;15.05;;;6.18;;
83893;SDS011;73920;51.902;6.374;2024-02-26T22:12:42;15.45;;;5.70;;
83893;SDS011;73920;51.902;6.374;2024-02-26T22:15:09;15.05;;;6.50;;